• Join FlightAware (Why Join?)
  • Login
  • US Flag 
02:31PM EST


 

Airport Tracker/Info


-or-


 

Live Flight TrackerFlight Track Log ✈ UAL3740 ✈ 09-Apr-2013 ✈ KPVD - KIAD

Flight Track Log - Related Links

Times and Time Zones

All times are in EDT time to prevent confusion due to time zone crossing. See the UAL3740 flight status page for this flight to view local times or setup timezone preferences in your user account.

Time Position Orientation Groundspeed Altitude Reporting Facility
EDT Latitude Longitude Course Direction KTS MPH feet Rate Location/Type
10:06AM 41.6981 -71.4697 246° West 164 189 2,000  Level Boston Center
10:08AM 41.6969 -71.5783 269° West 185 213 6,900 2,760 Climbing Boston Center
10:09AM 41.7472 -71.6331 321° Northwest 176 203 10,000 2,760 Climbing Boston Center
10:10AM 41.7936 -71.6911 317° Northwest 195 224 12,600 2,760 Climbing Boston Center
10:11AM 41.8211 -71.7658 296° West 228 262 15,500 2,640 Climbing Boston Center
10:12AM 41.8486 -71.8436 295° West 233 268 17,800 2,100 Climbing Boston Center
10:13AM 41.8761 -71.9272 294° West 243 280 19,800 1,620 Climbing Boston Center
10:14AM 41.8850 -72.0275 277° West 256 295 21,100 1,680 Climbing Boston Center
10:15AM 41.8914 -72.1333 275° West 275 316 23,200 2,400 Climbing Boston Center
10:16AM 41.9000 -72.2447 276° West 292 336 25,900 1,920 Climbing Boston Center
10:17AM 41.9086 -72.3508 276° West 292 336 27,100 1,380 Climbing Boston Center
10:18AM 41.9169 -72.4569 276° West 292 336 28,800 1,380 Climbing Boston Center
10:19AM 41.9231 -72.5683 274° West 292 336 30,000 1,140 Climbing Boston Center
10:20AM 41.9311 -72.6717 276° West 297 342 31,100 960 Climbing Boston Center
10:21AM 41.9392 -72.7861 275° West 307 353 32,000 420 Climbing Boston Center
10:22AM 41.9472 -72.9119 275° West 321 369 32,000  Level Boston Center
10:23AM 41.9069 -73.0650 251° West 362 417 32,000  Level Boston Center
10:24AM 41.8228 -73.1867 227° Southwest 385 443 32,000  Level Boston Center
10:25AM 41.7428 -73.3108 229° Southwest 418 481 32,000  Level Boston Center
10:26AM 41.6644 -73.4322 229° Southwest 437 503 32,000  Level Boston Center
10:29AM 41.4744 -73.7311 230° Southwest 445 512 32,000  Level New York Center
10:30AM 41.3964 -73.8519 229° Southwest 445 512 32,000  Level New York Center
10:31AM 41.3139 -73.9753 228° Southwest 444 511 32,000 -300 Level New York Center
10:32AM 41.2356 -74.0956 229° Southwest 444 511 31,500 -780 Descending New York Center
10:33AM 41.1617 -74.2022 227° Southwest 444 511 30,500 -1,080 Descending New York Center
10:34AM 41.0833 -74.3194 228° Southwest 439 505 29,400 -1,200 Descending New York Center
10:35AM 41.0044 -74.4444 230° Southwest 439 505 28,200 -720 Descending New York Center
10:36AM 40.9258 -74.5583 228° Southwest 439 505 28,000 -120 Descending New York Center
10:37AM 40.8733 -74.7008 244° Southwest 434 499 28,000  Level New York Center
10:38AM 40.8147 -74.8344 240° Southwest 424 488 28,000 -480 Level New York Center
10:39AM 40.7536 -74.9733 240° Southwest 429 494 27,100 -1,260 Descending New York Center
10:40AM 40.6906 -75.1008 237° Southwest 429 494 25,600 -1,500 Descending New York Center
10:41AM 40.6272 -75.2361 238° Southwest 429 494 24,100 -1,560 Descending New York Center
10:42AM 40.5678 -75.3717 240° Southwest 435 501 22,600 -1,500 Descending New York Center
10:43AM 40.5042 -75.5067 238° Southwest 435 501 21,100 -1,320 Descending New York Center
10:44AM 40.4406 -75.6306 236° Southwest 430 495 20,000 -600 Descending New York Center
10:45AM 40.3811 -75.7597 239° Southwest 425 489 20,000  Level New York Center
10:46AM 40.3214 -75.8861 238° Southwest 420 483 20,000 -300 Level New York Center
10:47AM 40.2556 -76.0147 236° Southwest 420 483 19,500 -1,080 Descending New York Center
10:48AM 40.1908 -76.1511 238° Southwest 413 475 17,900 -1,260 Descending New York Center
10:49AM 40.1267 -76.2764 236° Southwest 413 475 17,000 -660 Descending New York Center
10:50AM 40.0333 -76.4833 240° Southwest 401 461 16,200 -780 Descending Potomac TRACON
10:51AM 39.9667 -76.6167 237° Southwest 401 461 15,000 -600 Descending Potomac TRACON
10:52AM 39.9167 -76.7333 241° Southwest 403 464 15,000  Level Potomac TRACON
10:53AM 39.8667 -76.8500 241° Southwest 400 460 15,000 -840 Level Potomac TRACON
10:54AM 39.8000 -76.9667 233° Southwest 391 450 13,400 -1,620 Descending Potomac TRACON
10:55AM 39.7500 -77.0833 241° Southwest 374 430 11,800 -1,620 Descending Potomac TRACON
10:56AM 39.7000 -77.2000 241° Southwest 358 412 10,200 -1,020 Descending Potomac TRACON
10:57AM 39.6333 -77.2500 210° Southwest 297 342 9,800 -840 Descending Potomac TRACON
10:58AM 39.5500 -77.2833 197° South 282 325 8,600 -1,200 Descending Potomac TRACON
10:59AM 39.4833 -77.3333 210° Southwest 286 329 7,500 -840 Descending Potomac TRACON
11:00AM 39.4167 -77.3667 201° Southwest 281 323 7,100 -780 Descending Potomac TRACON
11:01AM 39.3333 -77.3667 180° South 289 333 6,100 -1,020 Descending Potomac TRACON
11:02AM 39.2500 -77.3667 180° South 282 325 5,100 -1,080 Descending Potomac TRACON
11:03AM 39.1833 -77.3667 180° South 282 325 4,100 -540 Descending Potomac TRACON
11:04AM 39.1000 -77.3500 171° South 276 318 4,100 -180 Level Potomac TRACON
11:05AM 39.0333 -77.3500 180° South 276 318 3,800 -540 Descending Potomac TRACON
11:06AM 38.9667 -77.3500 180° South 269 310 3,100 -480 Descending Potomac TRACON
11:07AM 38.9000 -77.3500 180° South 251 289 3,000 -480 Descending Potomac TRACON
11:08AM 38.8333 -77.3667 191° South 215 247 2,200 -480 Descending Potomac TRACON
11:09AM 38.8000 -77.4000 218° Southwest 177 204 2,100 -60 Descending Potomac TRACON
11:10AM 38.8333 -77.4333 322° Northwest 164 189 2,100 -300 Level Potomac TRACON
11:11AM 38.8833 -77.4333 360° North 135 155 1,500 -720 Descending Potomac TRACON
11:12AM 38.9167 -77.4333 360° North 132 152 700 -840 Descending Potomac TRACON
11:14AM 38.9333 -77.4500 349° North  Level FlightAware Approximate